sensor_id;sensor_type;location;lat;lon;timestamp;pressure;altitude;pressure_sealevel;temperature;humidity
25430;BME280;13360;48.152;-1.788;2023-04-05T00:00:42;102206.94;;;9.45;100.00
25430;BME280;13360;48.152;-1.788;2023-04-05T00:03:07;102211.31;;;9.41;100.00
25430;BME280;13360;48.152;-1.788;2023-04-05T00:05:34;102222.84;;;9.38;100.00
25430;BME280;13360;48.152;-1.788;2023-04-05T00:08:00;102221.16;;;9.37;100.00
25430;BME280;13360;48.152;-1.788;2023-04-05T00:10:26;102216.13;;;9.34;100.00
25430;BME280;13360;48.152;-1.788;2023-04-05T00:12:51;102228.25;;;9.33;100.00
25430;BME280;13360;48.152;-1.788;2023-04-05T00:15:17;102225.00;;;9.36;100.00
25430;BME280;13360;48.152;-1.788;2023-04-05T00:17:42;102211.72;;;9.33;100.00
25430;BME280;13360;48.152;-1.788;2023-04-05T00:20:08;102206.13;;;9.28;100.00
25430;BME280;13360;48.152;-1.788;2023-04-05T00:22:35;102204.41;;;9.22;100.00
25430;BME280;13360;48.152;-1.788;2023-04-05T00:25:01;102208.75;;;9.18;100.00
25430;BME280;13360;48.152;-1.788;2023-04-05T00:27:26;102203.13;;;9.12;100.00
25430;BME280;13360;48.152;-1.788;2023-04-05T00:29:51;102212.47;;;9.11;100.00
25430;BME280;13360;48.152;-1.788;2023-04-05T00:32:17;102214.16;;;9.12;100.00
25430;BME280;13360;48.152;-1.788;2023-04-05T00:34:42;102215.00;;;9.13;100.00
25430;BME280;13360;48.152;-1.788;2023-04-05T00:37:07;102222.44;;;9.12;100.00
25430;BME280;13360;48.152;-1.788;2023-04-05T00:39:32;102213.06;;;9.13;100.00
25430;BME280;13360;48.152;-1.788;2023-04-05T00:41:58;102200.88;;;9.09;100.00
25430;BME280;13360;48.152;-1.788;2023-04-05T00:44:23;102190.63;;;9.05;100.00
25430;BME280;13360;48.152;-1.788;2023-04-05T00:46:48;102171.25;;;9.00;100.00
25430;BME280;13360;48.152;-1.788;2023-04-05T00:49:14;102174.84;;;9.00;100.00
25430;BME280;13360;48.152;-1.788;2023-04-05T00:51:39;102183.63;;;8.97;100.00
25430;BME280;13360;48.152;-1.788;2023-04-05T00:54:06;102174.41;;;8.92;100.00
25430;BME280;13360;48.152;-1.788;2023-04-05T00:56:32;102178.75;;;8.88;100.00
25430;BME280;13360;48.152;-1.788;2023-04-05T00:58:58;102162.72;;;8.84;100.00
25430;BME280;13360;48.152;-1.788;2023-04-05T01:01:24;102161.06;;;8.83;100.00
25430;BME280;13360;48.152;-1.788;2023-04-05T01:03:51;102167.91;;;8.81;100.00
25430;BME280;13360;48.152;-1.788;2023-04-05T01:11:39;102156.69;;;8.71;100.00
25430;BME280;13360;48.152;-1.788;2023-04-05T01:14:06;102153.38;;;8.69;100.00
25430;BME280;13360;48.152;-1.788;2023-04-05T01:16:32;102160.78;;;8.68;100.00
25430;BME280;13360;48.152;-1.788;2023-04-05T01:18:57;102161.03;;;8.67;100.00
25430;BME280;13360;48.152;-1.788;2023-04-05T01:26:34;102143.59;;;8.61;100.00
25430;BME280;13360;48.152;-1.788;2023-04-05T01:34:08;102126.75;;;8.58;100.00
25430;BME280;13360;48.152;-1.788;2023-04-05T01:36:39;102128.31;;;8.53;100.00
25430;BME280;13360;48.152;-1.788;2023-04-05T01:39:06;102113.38;;;8.49;100.00
25430;BME280;13360;48.152;-1.788;2023-04-05T01:41:32;102105.78;;;8.40;100.00
25430;BME280;13360;48.152;-1.788;2023-04-05T01:43:57;102097.78;;;8.38;100.00
25430;BME280;13360;48.152;-1.788;2023-04-05T01:46:23;102097.78;;;8.38;100.00
25430;BME280;13360;48.152;-1.788;2023-04-05T01:48:48;102099.94;;;8.36;100.00
25430;BME280;13360;48.152;-1.788;2023-04-05T01:51:13;102091.94;;;8.35;100.00
25430;BME280;13360;48.152;-1.788;2023-04-05T01:53:39;102086.53;;;8.28;100.00
25430;BME280;13360;48.152;-1.788;2023-04-05T01:56:04;102089.28;;;8.28;100.00
25430;BME280;13360;48.152;-1.788;2023-04-05T01:58:29;102082.13;;;8.27;100.00
25430;BME280;13360;48.152;-1.788;2023-04-05T02:00:55;102098.88;;;8.25;100.00
25430;BME280;13360;48.152;-1.788;2023-04-05T02:03:21;102103.56;;;8.25;100.00
25430;BME280;13360;48.152;-1.788;2023-04-05T02:05:46;102101.88;;;8.24;100.00
25430;BME280;13360;48.152;-1.788;2023-04-05T02:08:12;102087.22;;;8.18;100.00
25430;BME280;13360;48.152;-1.788;2023-04-05T02:10:38;102091.28;;;8.16;100.00
25430;BME280;13360;48.152;-1.788;2023-04-05T02:13:04;102097.63;;;8.16;100.00
25430;BME280;13360;48.152;-1.788;2023-04-05T02:15:29;102104.56;;;8.19;100.00
25430;BME280;13360;48.152;-1.788;2023-04-05T02:17:55;102099.31;;;8.17;100.00
25430;BME280;13360;48.152;-1.788;2023-04-05T02:20:20;102091.78;;;8.13;100.00
25430;BME280;13360;48.152;-1.788;2023-04-05T02:22:45;102089.25;;;8.11;100.00
25430;BME280;13360;48.152;-1.788;2023-04-05T02:25:11;102084.84;;;8.10;100.00
25430;BME280;13360;48.152;-1.788;2023-04-05T02:27:37;102070.75;;;8.07;100.00
25430;BME280;13360;48.152;-1.788;2023-04-05T02:30:02;102067.66;;;8.03;100.00
25430;BME280;13360;48.152;-1.788;2023-04-05T02:32:28;102076.16;;;8.02;100.00
25430;BME280;13360;48.152;-1.788;2023-04-05T02:34:53;102063.41;;;7.95;100.00
25430;BME280;13360;48.152;-1.788;2023-04-05T02:37:19;102065.56;;;7.93;100.00
25430;BME280;13360;48.152;-1.788;2023-04-05T02:39:45;102065.00;;;7.91;100.00
25430;BME280;13360;48.152;-1.788;2023-04-05T02:42:10;102070.00;;;7.94;100.00
25430;BME280;13360;48.152;-1.788;2023-04-05T02:44:35;102064.25;;;7.96;100.00
25430;BME280;13360;48.152;-1.788;2023-04-05T02:47:01;102051.56;;;7.95;100.00
25430;BME280;13360;48.152;-1.788;2023-04-05T02:49:26;102057.06;;;7.95;100.00
25430;BME280;13360;48.152;-1.788;2023-04-05T02:51:51;102041.66;;;7.94;100.00
25430;BME280;13360;48.152;-1.788;2023-04-05T02:54:16;102031.72;;;7.93;100.00
25430;BME280;13360;48.152;-1.788;2023-04-05T02:56:42;102025.38;;;7.92;100.00
25430;BME280;13360;48.152;-1.788;2023-04-05T02:59:07;102025.84;;;7.89;100.00
25430;BME280;13360;48.152;-1.788;2023-04-05T03:01:32;102007.84;;;7.82;100.00
25430;BME280;13360;48.152;-1.788;2023-04-05T03:04:00;102001.44;;;7.76;100.00
25430;BME280;13360;48.152;-1.788;2023-04-05T03:06:25;102020.69;;;7.76;100.00
25430;BME280;13360;48.152;-1.788;2023-04-05T03:08:51;102015.09;;;7.71;100.00
25430;BME280;13360;48.152;-1.788;2023-04-05T03:11:17;102028.22;;;7.69;100.00
25430;BME280;13360;48.152;-1.788;2023-04-05T03:13:43;102038.16;;;7.70;100.00
25430;BME280;13360;48.152;-1.788;2023-04-05T03:16:08;102044.00;;;7.74;100.00
25430;BME280;13360;48.152;-1.788;2023-04-05T03:18:33;102024.91;;;7.67;100.00
25430;BME280;13360;48.152;-1.788;2023-04-05T03:20:59;102020.47;;;7.66;100.00
25430;BME280;13360;48.152;-1.788;2023-04-05T03:23:29;102032.66;;;7.70;100.00
25430;BME280;13360;48.152;-1.788;2023-04-05T03:25:58;102031.34;;;7.73;100.00
25430;BME280;13360;48.152;-1.788;2023-04-05T03:28:24;102019.75;;;7.71;100.00
25430;BME280;13360;48.152;-1.788;2023-04-05T03:30:50;102018.91;;;7.70;100.00
25430;BME280;13360;48.152;-1.788;2023-04-05T03:33:15;102015.09;;;7.71;100.00
25430;BME280;13360;48.152;-1.788;2023-04-05T03:35:41;102020.22;;;7.68;100.00
25430;BME280;13360;48.152;-1.788;2023-04-05T03:38:06;102019.41;;;7.67;100.00
25430;BME280;13360;48.152;-1.788;2023-04-05T03:40:31;102021.91;;;7.69;100.00
25430;BME280;13360;48.152;-1.788;2023-04-05T03:42:57;102025.47;;;7.69;100.00
25430;BME280;13360;48.152;-1.788;2023-04-05T03:45:22;102017.72;;;7.66;100.00
25430;BME280;13360;48.152;-1.788;2023-04-05T03:47:47;102020.38;;;7.61;100.00
25430;BME280;13360;48.152;-1.788;2023-04-05T03:50:12;102018.72;;;7.60;100.00
25430;BME280;13360;48.152;-1.788;2023-04-05T03:52:38;102036.53;;;7.57;100.00
25430;BME280;13360;48.152;-1.788;2023-04-05T03:55:03;102049.38;;;7.52;100.00
25430;BME280;13360;48.152;-1.788;2023-04-05T03:57:29;102054.88;;;7.52;100.00
25430;BME280;13360;48.152;-1.788;2023-04-05T03:59:55;102068.38;;;7.53;100.00
25430;BME280;13360;48.152;-1.788;2023-04-05T04:02:20;102070.88;;;7.55;100.00
25430;BME280;13360;48.152;-1.788;2023-04-05T04:04:45;102080.19;;;7.54;100.00
25430;BME280;13360;48.152;-1.788;2023-04-05T04:07:11;102073.03;;;7.53;100.00
25430;BME280;13360;48.152;-1.788;2023-04-05T04:09:36;102083.19;;;7.52;100.00
25430;BME280;13360;48.152;-1.788;2023-04-05T04:12:01;102092.28;;;7.53;100.00
25430;BME280;13360;48.152;-1.788;2023-04-05T04:14:27;102093.13;;;7.53;100.00
25430;BME280;13360;48.152;-1.788;2023-04-05T04:16:53;102098.97;;;7.57;100.00
25430;BME280;13360;48.152;-1.788;2023-04-05T04:19:18;102100.13;;;7.61;100.00
25430;BME280;13360;48.152;-1.788;2023-04-05T04:21:44;102085.53;;;7.60;100.00
25430;BME280;13360;48.152;-1.788;2023-04-05T04:24:15;102095.13;;;7.58;100.00
25430;BME280;13360;48.152;-1.788;2023-04-05T04:26:45;102093.47;;;7.57;100.00
25430;BME280;13360;48.152;-1.788;2023-04-05T04:29:11;102095.13;;;7.58;100.00
25430;BME280;13360;48.152;-1.788;2023-04-05T04:31:42;102093.22;;;7.58;100.00
25430;BME280;13360;48.152;-1.788;2023-04-05T04:34:10;102096.78;;;7.59;100.00
25430;BME280;13360;48.152;-1.788;2023-04-05T04:36:35;102096.22;;;7.57;100.00
25430;BME280;13360;48.152;-1.788;2023-04-05T04:39:03;102090.22;;;7.60;100.00
25430;BME280;13360;48.152;-1.788;2023-04-05T04:41:31;102082.47;;;7.57;100.00
25430;BME280;13360;48.152;-1.788;2023-04-05T04:44:00;102089.88;;;7.56;100.00
25430;BME280;13360;48.152;-1.788;2023-04-05T04:46:29;102086.03;;;7.57;100.00
25430;BME280;13360;48.152;-1.788;2023-04-05T04:48:58;102089.63;;;7.58;100.00
25430;BME280;13360;48.152;-1.788;2023-04-05T04:51:23;102094.03;;;7.59;100.00
25430;BME280;13360;48.152;-1.788;2023-04-05T04:53:50;102092.38;;;7.58;100.00
25430;BME280;13360;48.152;-1.788;2023-04-05T04:56:15;102094.03;;;7.59;100.00
25430;BME280;13360;48.152;-1.788;2023-04-05T04:58:40;102090.22;;;7.60;100.00
25430;BME280;13360;48.152;-1.788;2023-04-05T05:01:06;102080.28;;;7.59;100.00
25430;BME280;13360;48.152;-1.788;2023-04-05T05:03:33;102080.19;;;7.54;100.00
25430;BME280;13360;48.152;-1.788;2023-04-05T05:05:58;102086.53;;;7.54;100.00
25430;BME280;13360;48.152;-1.788;2023-04-05T05:08:24;102087.63;;;7.53;100.00
25430;BME280;13360;48.152;-1.788;2023-04-05T05:10:49;102090.63;;;7.52;100.00
25430;BME280;13360;48.152;-1.788;2023-04-05T05:13:16;102088.78;;;7.57;100.00
25430;BME280;13360;48.152;-1.788;2023-04-05T05:15:41;102088.53;;;7.59;100.00
25430;BME280;13360;48.152;-1.788;2023-04-05T05:18:06;102090.47;;;7.58;100.00
25430;BME280;13360;48.152;-1.788;2023-04-05T05:20:32;102092.97;;;7.60;100.00
25430;BME280;13360;48.152;-1.788;2023-04-05T05:22:58;102091.72;;;7.68;100.00
25430;BME280;13360;48.152;-1.788;2023-04-05T05:25:25;102090.31;;;7.65;100.00
25430;BME280;13360;48.152;-1.788;2023-04-05T05:27:51;102090.22;;;7.60;100.00
25430;BME280;13360;48.152;-1.788;2023-04-05T05:30:17;102092.88;;;7.55;100.00
25430;BME280;13360;48.152;-1.788;2023-04-05T05:32:42;102102.44;;;7.52;100.00
25430;BME280;13360;48.152;-1.788;2023-04-05T05:35:07;102105.78;;;7.54;100.00
25430;BME280;13360;48.152;-1.788;2023-04-05T05:37:33;102105.78;;;7.54;100.00
25430;BME280;13360;48.152;-1.788;2023-04-05T05:39:58;102118.78;;;7.59;100.00
25430;BME280;13360;48.152;-1.788;2023-04-05T05:42:24;102115.56;;;7.62;100.00
25430;BME280;13360;48.152;-1.788;2023-04-05T05:44:50;102106.13;;;7.58;100.00
25430;BME280;13360;48.152;-1.788;2023-04-05T05:47:15;102120.72;;;7.58;100.00
25430;BME280;13360;48.152;-1.788;2023-04-05T05:49:40;102118.31;;;7.62;100.00
25430;BME280;13360;48.152;-1.788;2023-04-05T05:52:05;102114.56;;;7.68;100.00
25430;BME280;13360;48.152;-1.788;2023-04-05T05:54:31;102121.03;;;7.74;100.00
25430;BME280;13360;48.152;-1.788;2023-04-05T05:56:56;102119.94;;;7.75;100.00
25430;BME280;13360;48.152;-1.788;2023-04-05T05:59:21;102116.38;;;7.74;100.00
25430;BME280;13360;48.152;-1.788;2023-04-05T06:01:47;102113.63;;;7.74;100.00
25430;BME280;13360;48.152;-1.788;2023-04-05T06:04:12;102117.53;;;7.78;100.00
25430;BME280;13360;48.152;-1.788;2023-04-05T06:06:38;102126.38;;;7.80;100.00
25430;BME280;13360;48.152;-1.788;2023-04-05T06:09:04;102131.16;;;7.85;100.00
25430;BME280;13360;48.152;-1.788;2023-04-05T06:11:29;102127.06;;;7.87;100.00
25430;BME280;13360;48.152;-1.788;2023-04-05T06:13:55;102128.03;;;7.93;100.00
25430;BME280;13360;48.152;-1.788;2023-04-05T06:16:20;102127.78;;;7.94;100.00
25430;BME280;13360;48.152;-1.788;2023-04-05T06:18:45;102142.47;;;8.00;100.00
25430;BME280;13360;48.152;-1.788;2023-04-05T06:21:11;102142.47;;;8.00;100.00
25430;BME280;13360;48.152;-1.788;2023-04-05T06:23:36;102141.63;;;8.00;100.00
25430;BME280;13360;48.152;-1.788;2023-04-05T06:26:02;102149.88;;;8.00;100.00
25430;BME280;13360;48.152;-1.788;2023-04-05T06:28:27;102149.97;;;8.05;100.00
25430;BME280;13360;48.152;-1.788;2023-04-05T06:30:54;102141.03;;;7.98;100.00
25430;BME280;13360;48.152;-1.788;2023-04-05T06:33:19;102149.03;;;7.99;100.00
25430;BME280;13360;48.152;-1.788;2023-04-05T06:35:45;102150.06;;;8.10;100.00
25430;BME280;13360;48.152;-1.788;2023-04-05T06:38:10;102146.94;;;8.18;100.00
25430;BME280;13360;48.152;-1.788;2023-04-05T06:40:36;102139.00;;;8.21;100.00
25430;BME280;13360;48.152;-1.788;2023-04-05T06:43:01;102148.44;;;8.25;100.00
25430;BME280;13360;48.152;-1.788;2023-04-05T06:45:26;102145.53;;;8.32;100.00
25430;BME280;13360;48.152;-1.788;2023-04-05T06:47:51;102138.50;;;8.36;100.00
25430;BME280;13360;48.152;-1.788;2023-04-05T06:50:17;102142.16;;;8.42;100.00
25430;BME280;13360;48.152;-1.788;2023-04-05T06:52:42;102140.84;;;8.44;100.00
25430;BME280;13360;48.152;-1.788;2023-04-05T06:55:07;102150.00;;;8.50;100.00
25430;BME280;13360;48.152;-1.788;2023-04-05T06:57:33;102145.19;;;8.57;100.00
25430;BME280;13360;48.152;-1.788;2023-04-05T06:59:58;102150.78;;;8.62;100.00
25430;BME280;13360;48.152;-1.788;2023-04-05T07:02:24;102152.28;;;8.70;100.00
25430;BME280;13360;48.152;-1.788;2023-04-05T07:04:49;102149.13;;;8.78;100.00
25430;BME280;13360;48.152;-1.788;2023-04-05T07:07:15;102156.38;;;8.84;100.00
25430;BME280;13360;48.152;-1.788;2023-04-05T07:09:41;102152.28;;;8.86;100.00
25430;BME280;13360;48.152;-1.788;2023-04-05T07:12:06;102152.59;;;8.90;100.00
25430;BME280;13360;48.152;-1.788;2023-04-05T07:14:33;102158.44;;;8.94;100.00
25430;BME280;13360;48.152;-1.788;2023-04-05T07:16:59;102161.81;;;8.96;100.00
25430;BME280;13360;48.152;-1.788;2023-04-05T07:19:24;102155.53;;;9.00;100.00
25430;BME280;13360;48.152;-1.788;2023-04-05T07:21:50;102156.69;;;9.04;100.00
25430;BME280;13360;48.152;-1.788;2023-04-05T07:24:15;102160.03;;;9.06;100.00
25430;BME280;13360;48.152;-1.788;2023-04-05T07:26:40;102157.78;;;9.03;100.00
25430;BME280;13360;48.152;-1.788;2023-04-05T07:29:06;102160.88;;;9.07;100.00
25430;BME280;13360;48.152;-1.788;2023-04-05T07:31:32;102167.28;;;9.12;100.00
25430;BME280;13360;48.152;-1.788;2023-04-05T07:33:58;102166.88;;;9.21;100.00
25430;BME280;13360;48.152;-1.788;2023-04-05T07:36:24;102169.13;;;9.24;100.00
25430;BME280;13360;48.152;-1.788;2023-04-05T07:38:51;102172.53;;;9.31;100.00
25430;BME280;13360;48.152;-1.788;2023-04-05T07:41:16;102179.78;;;9.37;100.00
25430;BME280;13360;48.152;-1.788;2023-04-05T07:43:43;102176.88;;;9.43;100.00
25430;BME280;13360;48.152;-1.788;2023-04-05T07:46:09;102183.28;;;9.49;100.00
25430;BME280;13360;48.152;-1.788;2023-04-05T07:48:34;102183.84;;;9.51;100.00
25430;BME280;13360;48.152;-1.788;2023-04-05T07:51:05;102181.66;;;9.53;100.00
25430;BME280;13360;48.152;-1.788;2023-04-05T07:53:31;102183.19;;;9.61;100.00
25430;BME280;13360;48.152;-1.788;2023-04-05T07:55:57;102211.91;;;9.65;100.00
25430;BME280;13360;48.152;-1.788;2023-04-05T07:58:23;102212.56;;;9.72;100.00
25430;BME280;13360;48.152;-1.788;2023-04-05T08:00:48;102216.22;;;9.77;100.00
25430;BME280;13360;48.152;-1.788;2023-04-05T08:03:13;102210.69;;;9.77;100.00
25430;BME280;13360;48.152;-1.788;2023-04-05T08:05:38;102215.72;;;9.81;100.00
25430;BME280;13360;48.152;-1.788;2023-04-05T08:08:04;102213.03;;;9.86;100.00
25430;BME280;13360;48.152;-1.788;2023-04-05T08:10:29;102219.06;;;9.83;100.00
25430;BME280;13360;48.152;-1.788;2023-04-05T08:12:54;102226.63;;;9.92;100.00
25430;BME280;13360;48.152;-1.788;2023-04-05T08:15:20;102220.06;;;9.98;100.00
25430;BME280;13360;48.152;-1.788;2023-04-05T08:17:45;102227.25;;;9.99;100.00
25430;BME280;13360;48.152;-1.788;2023-04-05T08:20:10;102229.28;;;10.04;100.00
25430;BME280;13360;48.152;-1.788;2023-04-05T08:22:36;102228.19;;;10.05;100.00
25430;BME280;13360;48.152;-1.788;2023-04-05T08:25:01;102229.91;;;10.11;100.00
25430;BME280;13360;48.152;-1.788;2023-04-05T08:27:26;102236.47;;;10.05;100.00
25430;BME280;13360;48.152;-1.788;2023-04-05T08:29:51;102242.66;;;10.17;100.00
25430;BME280;13360;48.152;-1.788;2023-04-05T08:32:17;102235.78;;;10.20;100.00
25430;BME280;13360;48.152;-1.788;2023-04-05T08:34:42;102238.66;;;10.25;100.00
25430;BME280;13360;48.152;-1.788;2023-04-05T08:37:07;102236.53;;;10.32;100.00
25430;BME280;13360;48.152;-1.788;2023-04-05T08:39:35;102236.22;;;10.28;100.00
25430;BME280;13360;48.152;-1.788;2023-04-05T08:42:07;102219.38;;;10.30;100.00
25430;BME280;13360;48.152;-1.788;2023-04-05T08:44:36;102243.69;;;10.55;100.00
25430;BME280;13360;48.152;-1.788;2023-04-05T08:47:01;102252.16;;;11.02;100.00
25430;BME280;13360;48.152;-1.788;2023-04-05T08:49:27;102256.09;;;11.43;100.00
25430;BME280;13360;48.152;-1.788;2023-04-05T08:51:52;102191.31;;;11.39;100.00
25430;BME280;13360;48.152;-1.788;2023-04-05T08:54:18;102183.38;;;11.48;100.00
25430;BME280;13360;48.152;-1.788;2023-04-05T08:56:43;102168.72;;;11.52;100.00
25430;BME280;13360;48.152;-1.788;2023-04-05T08:59:10;102169.31;;;11.65;100.00
25430;BME280;13360;48.152;-1.788;2023-04-05T09:01:38;102163.31;;;11.78;100.00
25430;BME280;13360;48.152;-1.788;2023-04-05T09:04:08;102148.47;;;11.94;100.00
25430;BME280;13360;48.152;-1.788;2023-04-05T09:06:35;102145.19;;;12.17;100.00
25430;BME280;13360;48.152;-1.788;2023-04-05T09:09:02;102160.50;;;12.56;100.00
25430;BME280;13360;48.152;-1.788;2023-04-05T09:11:29;102163.53;;;13.10;100.00
25430;BME280;13360;48.152;-1.788;2023-04-05T09:13:55;102154.03;;;13.62;100.00
25430;BME280;13360;48.152;-1.788;2023-04-05T09:16:20;102132.81;;;13.86;100.00
25430;BME280;13360;48.152;-1.788;2023-04-05T09:18:46;102100.66;;;13.80;100.00
25430;BME280;13360;48.152;-1.788;2023-04-05T09:21:11;102084.75;;;13.91;100.00
25430;BME280;13360;48.152;-1.788;2023-04-05T09:23:36;102070.53;;;14.02;100.00
25430;BME280;13360;48.152;-1.788;2023-04-05T09:26:17;102064.88;;;14.18;100.00
25430;BME280;13360;48.152;-1.788;2023-04-05T09:28:43;102064.25;;;14.26;100.00
25430;BME280;13360;48.152;-1.788;2023-04-05T09:31:08;102063.75;;;14.19;100.00
25430;BME280;13360;48.152;-1.788;2023-04-05T09:33:34;102048.16;;;14.23;100.00
25430;BME280;13360;48.152;-1.788;2023-04-05T09:36:00;102049.22;;;14.27;100.00
25430;BME280;13360;48.152;-1.788;2023-04-05T09:38:41;102047.44;;;14.41;100.00
25430;BME280;13360;48.152;-1.788;2023-04-05T09:41:07;102032.56;;;14.61;100.00
25430;BME280;13360;48.152;-1.788;2023-04-05T09:43:39;102029.38;;;14.73;100.00
25430;BME280;13360;48.152;-1.788;2023-04-05T09:46:05;102034.31;;;14.81;100.00
25430;BME280;13360;48.152;-1.788;2023-04-05T09:49:03;102031.25;;;15.06;100.00
25430;BME280;13360;48.152;-1.788;2023-04-05T09:51:21;102025.97;;;15.29;100.00
25430;BME280;13360;48.152;-1.788;2023-04-05T09:56:22;102019.75;;;15.37;100.00
25430;BME280;13360;48.152;-1.788;2023-04-05T09:58:49;102016.50;;;15.30;100.00
25430;BME280;13360;48.152;-1.788;2023-04-05T10:01:15;102006.97;;;15.12;100.00
25430;BME280;13360;48.152;-1.788;2023-04-05T10:03:47;101999.97;;;15.14;100.00
25430;BME280;13360;48.152;-1.788;2023-04-05T10:06:13;102017.03;;;15.32;100.00
25430;BME280;13360;48.152;-1.788;2023-04-05T10:08:39;102003.81;;;15.42;100.00
25430;BME280;13360;48.152;-1.788;2023-04-05T10:11:04;101999.06;;;15.43;100.00
25430;BME280;13360;48.152;-1.788;2023-04-05T10:13:30;102008.72;;;15.50;100.00
25430;BME280;13360;48.152;-1.788;2023-04-05T10:15:55;101991.09;;;15.55;100.00
25430;BME280;13360;48.152;-1.788;2023-04-05T10:18:23;101990.28;;;15.54;100.00
25430;BME280;13360;48.152;-1.788;2023-04-05T10:20:53;101977.97;;;15.37;100.00
25430;BME280;13360;48.152;-1.788;2023-04-05T10:23:25;101970.81;;;14.88;100.00
25430;BME280;13360;48.152;-1.788;2023-04-05T10:30:58;102015.84;;;14.66;100.00
25430;BME280;13360;48.152;-1.788;2023-04-05T10:33:30;102040.28;;;14.69;100.00
25430;BME280;13360;48.152;-1.788;2023-04-05T10:36:08;101999.78;;;14.58;100.00
25430;BME280;13360;48.152;-1.788;2023-04-05T10:41:16;102017.56;;;14.57;100.00
25430;BME280;13360;48.152;-1.788;2023-04-05T10:43:42;102022.88;;;14.58;100.00
25430;BME280;13360;48.152;-1.788;2023-04-05T10:46:09;102020.34;;;14.57;100.00
25430;BME280;13360;48.152;-1.788;2023-04-05T10:48:58;102035.06;;;14.57;100.00
25430;BME280;13360;48.152;-1.788;2023-04-05T10:51:25;102049.50;;;14.64;100.00
25430;BME280;13360;48.152;-1.788;2023-04-05T10:53:51;102036.94;;;14.67;100.00
25430;BME280;13360;48.152;-1.788;2023-04-05T10:56:17;102014.22;;;14.60;100.00
25430;BME280;13360;48.152;-1.788;2023-04-05T10:58:42;102002.84;;;14.56;100.00
25430;BME280;13360;48.152;-1.788;2023-04-05T11:01:08;102002.84;;;14.56;100.00
25430;BME280;13360;48.152;-1.788;2023-04-05T11:06:21;101983.13;;;14.58;100.00
25430;BME280;13360;48.152;-1.788;2023-04-05T11:08:47;102008.06;;;14.63;100.00
25430;BME280;13360;48.152;-1.788;2023-04-05T11:11:14;102001.94;;;14.66;100.00
25430;BME280;13360;48.152;-1.788;2023-04-05T11:13:47;101990.69;;;14.76;100.00
25430;BME280;13360;48.152;-1.788;2023-04-05T11:16:12;101986.00;;;14.72;100.00
25430;BME280;13360;48.152;-1.788;2023-04-05T11:18:43;101996.84;;;14.73;100.00
25430;BME280;13360;48.152;-1.788;2023-04-05T11:21:08;101983.22;;;14.72;100.00
25430;BME280;13360;48.152;-1.788;2023-04-05T11:23:34;101986.00;;;14.72;100.00
25430;BME280;13360;48.152;-1.788;2023-04-05T11:26:18;101998.78;;;14.73;100.00
25430;BME280;13360;48.152;-1.788;2023-04-05T11:28:43;101978.44;;;14.77;100.00
25430;BME280;13360;48.152;-1.788;2023-04-05T11:31:13;102001.47;;;14.83;100.00
25430;BME280;13360;48.152;-1.788;2023-04-05T11:36:14;101982.53;;;14.85;100.00
25430;BME280;13360;48.152;-1.788;2023-04-05T11:39:15;101980.09;;;14.78;100.00
25430;BME280;13360;48.152;-1.788;2023-04-05T11:41:38;101975.84;;;14.86;100.00
25430;BME280;13360;48.152;-1.788;2023-04-05T11:44:03;101982.69;;;14.93;100.00
25430;BME280;13360;48.152;-1.788;2023-04-05T11:46:32;101976.00;;;14.94;100.00
25430;BME280;13360;48.152;-1.788;2023-04-05T11:48:57;101972.34;;;14.99;100.00
25430;BME280;13360;48.152;-1.788;2023-04-05T11:51:22;101968.38;;;15.05;100.00
25430;BME280;13360;48.152;-1.788;2023-04-05T11:53:48;101965.59;;;15.05;100.00
25430;BME280;13360;48.152;-1.788;2023-04-05T11:56:14;101965.00;;;15.08;100.00
25430;BME280;13360;48.152;-1.788;2023-04-05T11:58:40;101967.25;;;15.06;100.00
25430;BME280;13360;48.152;-1.788;2023-04-05T12:01:07;101950.56;;;15.06;100.00
25430;BME280;13360;48.152;-1.788;2023-04-05T12:03:37;101937.78;;;15.05;100.00
25430;BME280;13360;48.152;-1.788;2023-04-05T12:06:03;101954.78;;;15.04;100.00
25430;BME280;13360;48.152;-1.788;2023-04-05T12:08:42;101952.22;;;15.07;100.00
25430;BME280;13360;48.152;-1.788;2023-04-05T12:11:13;101938.84;;;15.09;100.00
25430;BME280;13360;48.152;-1.788;2023-04-05T12:13:39;101923.88;;;15.05;100.00
25430;BME280;13360;48.152;-1.788;2023-04-05T12:16:05;101920.56;;;15.03;100.00
25430;BME280;13360;48.152;-1.788;2023-04-05T12:18:32;101922.75;;;15.06;100.00
25430;BME280;13360;48.152;-1.788;2023-04-05T12:20:58;101925.59;;;15.01;100.00
25430;BME280;13360;48.152;-1.788;2023-04-05T12:23:24;101933.38;;;14.99;100.00
25430;BME280;13360;48.152;-1.788;2023-04-05T12:25:50;101914.69;;;15.05;100.00
25430;BME280;13360;48.152;-1.788;2023-04-05T12:28:15;101918.91;;;15.02;100.00
25430;BME280;13360;48.152;-1.788;2023-04-05T12:30:50;101904.09;;;15.07;100.00
25430;BME280;13360;48.152;-1.788;2023-04-05T12:33:26;101931.00;;;15.11;100.00
25430;BME280;13360;48.152;-1.788;2023-04-05T12:35:52;101917.19;;;15.06;100.00
25430;BME280;13360;48.152;-1.788;2023-04-05T12:38:17;101922.88;;;15.15;100.00
25430;BME280;13360;48.152;-1.788;2023-04-05T12:40:56;101941.47;;;15.19;100.00
25430;BME280;13360;48.152;-1.788;2023-04-05T12:43:52;101908.91;;;15.20;100.00
25430;BME280;13360;48.152;-1.788;2023-04-05T12:46:36;101901.03;;;15.27;100.00
25430;BME280;13360;48.152;-1.788;2023-04-05T12:49:03;101911.56;;;15.30;100.00
25430;BME280;13360;48.152;-1.788;2023-04-05T12:51:28;101921.03;;;15.29;100.00
25430;BME280;13360;48.152;-1.788;2023-04-05T12:53:55;101911.16;;;15.37;100.00
25430;BME280;13360;48.152;-1.788;2023-04-05T12:56:20;101898.59;;;15.39;100.00
25430;BME280;13360;48.152;-1.788;2023-04-05T12:58:47;101905.59;;;15.37;100.00
25430;BME280;13360;48.152;-1.788;2023-04-05T13:01:14;101910.03;;;15.38;100.00
25430;BME280;13360;48.152;-1.788;2023-04-05T13:03:42;101903.88;;;15.41;100.00